Time;durP1;ratioP1;P1;durP2;ratioP2;P2;SDS_P1;SDS_P2;PMS_P1;PMS_P2;Temp;Humidity;BMP_temperature;BMP_pressure;BME280_temperature;BME280_humidity;BME280_pressure;Samples;Min_cycle;Max_cycle;Signal;HPM_P1;HPM_P2
2021/06/19 00:00:18;;;;;;;12.20;7.70;;;22.00;70.50;;;;;;5128017;28;20028;-55
2021/06/19 00:02:44;;;;;;;11.80;8.10;;;22.10;69.90;;;;;;5126661;28;20102;-48
2021/06/19 00:05:10;;;;;;;10.98;7.60;;;22.10;69.90;;;;;;5126793;28;20024;-47
2021/06/19 00:07:36;;;;;;;12.23;8.52;;;22.00;70.20;;;;;;5127162;28;20373;-47
2021/06/19 00:10:03;;;;;;;11.27;8.27;;;21.90;70.90;;;;;;5127141;28;20065;-47
2021/06/19 00:12:28;;;;;;;12.40;7.90;;;21.90;70.80;;;;;;5127037;28;20032;-48
2021/06/19 00:14:54;;;;;;;9.45;7.93;;;21.90;70.70;;;;;;5127468;28;20024;-47
2021/06/19 00:17:19;;;;;;;11.90;7.35;;;21.90;71.10;;;;;;5127362;28;20349;-48
2021/06/19 00:19:45;;;;;;;12.73;8.45;;;21.90;71.00;;;;;;5126760;28;20093;-47
2021/06/19 00:22:10;;;;;;;13.45;7.82;;;21.90;71.10;;;;;;5126852;27;20319;-47
2021/06/19 00:24:38;;;;;;;13.35;9.10;;;21.80;71.30;;;;;;5126731;28;20031;-47
2021/06/19 00:27:04;;;;;;;12.20;8.05;;;21.90;71.20;;;;;;5126779;28;20038;-46
2021/06/19 00:29:32;;;;;;;11.98;7.70;;;21.80;71.40;;;;;;5125927;28;20024;-48
2021/06/19 00:31:58;;;;;;;13.48;7.93;;;21.90;71.30;;;;;;5126750;28;20051;-47
2021/06/19 00:34:24;;;;;;;10.23;8.20;;;21.80;71.10;;;;;;5126715;28;20319;-47
2021/06/19 00:36:50;;;;;;;11.93;8.63;;;21.80;71.00;;;;;;5126585;28;20034;-47
2021/06/19 00:39:15;;;;;;;13.98;8.15;;;21.80;70.60;;;;;;5126869;28;20051;-47
2021/06/19 00:41:41;;;;;;;9.82;7.88;;;21.80;70.50;;;;;;5126268;28;20036;-46
2021/06/19 00:44:18;;;;;;;9.90;8.05;;;21.60;70.70;;;;;;5125418;28;20056;-47
2021/06/19 00:46:43;;;;;;;12.98;7.72;;;21.70;70.80;;;;;;5126723;28;20054;-49
2021/06/19 00:49:09;;;;;;;11.65;8.00;;;21.70;70.50;;;;;;5126490;28;20031;-47
2021/06/19 00:51:35;;;;;;;13.13;8.18;;;21.70;69.80;;;;;;5125083;28;20031;-48
2021/06/19 00:54:00;;;;;;;13.82;8.40;;;21.60;70.10;;;;;;5126944;28;20089;-48
2021/06/19 00:56:26;;;;;;;12.70;8.38;;;21.50;70.60;;;;;;5126550;28;20051;-46
2021/06/19 00:58:51;;;;;;;10.63;7.88;;;21.50;70.30;;;;;;5126341;28;20035;-47
2021/06/19 01:01:17;;;;;;;11.00;8.23;;;21.60;70.10;;;;;;5125942;28;20083;-47
2021/06/19 01:03:42;;;;;;;12.90;8.82;;;21.50;70.40;;;;;;5125840;28;20035;-47
2021/06/19 01:06:08;;;;;;;9.20;8.15;;;21.50;70.80;;;;;;5126312;28;20095;-49
2021/06/19 01:08:33;;;;;;;11.63;8.10;;;21.60;70.70;;;;;;5126344;28;20093;-47
2021/06/19 01:10:59;;;;;;;10.50;8.48;;;21.50;71.20;;;;;;5126274;28;20032;-47
2021/06/19 01:13:25;;;;;;;11.27;8.77;;;21.60;70.90;;;;;;5125665;28;20036;-48
2021/06/19 01:15:50;;;;;;;13.05;8.45;;;21.60;71.00;;;;;;5124819;28;20358;-47
2021/06/19 01:18:16;;;;;;;11.80;8.40;;;21.60;71.00;;;;;;5126697;28;20035;-47
2021/06/19 01:20:41;;;;;;;14.40;8.80;;;21.50;71.40;;;;;;5125586;28;20035;-47
2021/06/19 01:23:06;;;;;;;10.10;8.20;;;21.50;71.40;;;;;;5125845;28;20095;-47
2021/06/19 01:25:33;;;;;;;11.02;8.68;;;21.50;71.60;;;;;;5125748;28;20065;-47
2021/06/19 01:27:59;;;;;;;11.52;8.88;;;21.60;71.30;;;;;;5125661;28;20024;-46
2021/06/19 01:30:26;;;;;;;10.82;8.63;;;21.50;71.80;;;;;;5125379;28;20038;-48
2021/06/19 01:32:52;;;;;;;11.02;8.43;;;21.50;72.00;;;;;;5125778;28;20148;-47
2021/06/19 01:35:18;;;;;;;10.10;8.23;;;21.40;72.20;;;;;;5125691;28;20330;-47
2021/06/19 01:37:48;;;;;;;10.88;8.23;;;21.40;72.30;;;;;;5124491;28;20077;-47
2021/06/19 01:40:18;;;;;;;11.63;8.73;;;21.40;72.50;;;;;;5125656;28;20036;-49
2021/06/19 01:42:45;;;;;;;9.75;7.88;;;21.40;72.40;;;;;;5125260;28;20043;-49
2021/06/19 01:45:21;;;;;;;10.95;8.40;;;21.50;72.40;;;;;;5125031;28;20031;-48
2021/06/19 01:47:48;;;;;;;11.55;8.80;;;21.70;72.40;;;;;;5125836;28;20028;-47
2021/06/19 01:50:16;;;;;;;11.52;8.57;;;21.60;72.20;;;;;;5125405;28;20039;-47
2021/06/19 01:52:41;;;;;;;13.70;8.75;;;21.40;72.30;;;;;;5125475;28;20024;-47
2021/06/19 01:55:07;;;;;;;10.80;8.20;;;21.50;72.10;;;;;;5125029;28;20226;-48
2021/06/19 01:57:36;;;;;;;10.02;8.43;;;21.50;72.00;;;;;;5124949;28;20028;-47
2021/06/19 02:00:07;;;;;;;16.23;8.45;;;21.50;72.30;;;;;;5125357;28;20023;-49
2021/06/19 02:02:32;;;;;;;9.40;8.30;;;21.50;72.30;;;;;;5125493;27;20099;-48
2021/06/19 02:04:58;;;;;;;10.23;8.57;;;21.50;72.60;;;;;;5125061;28;20261;-47
2021/06/19 02:07:23;;;;;;;11.45;9.15;;;21.50;72.40;;;;;;5123593;28;20054;-47
2021/06/19 02:09:49;;;;;;;14.65;8.63;;;21.40;72.50;;;;;;5106583;28;20027;-47
2021/06/19 02:12:16;;;;;;;11.05;9.15;;;21.40;72.80;;;;;;5125446;28;20037;-47
2021/06/19 02:14:41;;;;;;;12.35;9.38;;;21.40;72.50;;;;;;5125158;28;20039;-47
2021/06/19 02:17:07;;;;;;;10.73;8.30;;;21.50;72.00;;;;;;5124660;28;20322;-49
2021/06/19 02:19:32;;;;;;;12.45;9.57;;;21.50;71.80;;;;;;5124558;28;20073;-48
2021/06/19 02:21:58;;;;;;;11.07;8.52;;;21.40;72.20;;;;;;5124416;27;20034;-48
2021/06/19 02:24:23;;;;;;;11.55;9.20;;;21.30;72.40;;;;;;5124804;28;20023;-47
2021/06/19 02:26:49;;;;;;;11.10;8.63;;;21.40;72.40;;;;;;5125291;28;20235;-47
2021/06/19 02:29:14;;;;;;;11.50;8.85;;;21.40;72.10;;;;;;5123807;28;20038;-48
2021/06/19 02:31:40;;;;;;;11.43;8.50;;;21.40;72.10;;;;;;5124393;28;20043;-47
2021/06/19 02:34:06;;;;;;;12.73;9.20;;;21.30;72.50;;;;;;5124723;28;20024;-54
2021/06/19 02:36:31;;;;;;;17.05;8.70;;;21.30;72.90;;;;;;5124875;28;20334;-45
2021/06/19 02:38:57;;;;;;;20.85;15.00;;;21.40;72.40;;;;;;5125078;28;20024;-49
2021/06/19 02:41:22;;;;;;;16.55;10.25;;;21.40;72.30;;;;;;5124528;28;20032;-48
2021/06/19 02:43:48;;;;;;;173.40;125.22;;;21.40;72.40;;;;;;5124547;28;20039;-46
2021/06/19 02:46:13;;;;;;;15.70;10.40;;;21.30;72.40;;;;;;5124428;28;20031;-46
2021/06/19 02:48:40;;;;;;;13.68;11.60;;;21.30;72.40;;;;;;5125255;28;20051;-46
2021/06/19 02:51:05;;;;;;;17.63;13.63;;;21.30;72.40;;;;;;5128925;28;20260;-46
2021/06/19 02:53:31;;;;;;;18.67;13.98;;;21.20;72.50;;;;;;5129072;28;20032;-47
2021/06/19 02:55:56;;;;;;;21.25;13.63;;;21.20;72.80;;;;;;5128725;27;20032;-47
2021/06/19 02:58:22;;;;;;;13.45;10.55;;;21.10;73.10;;;;;;5128633;28;20064;-56
2021/06/19 03:00:50;;;;;;;16.40;11.13;;;21.30;72.90;;;;;;5128430;28;20032;-46
2021/06/19 03:03:15;;;;;;;16.42;12.18;;;21.30;73.10;;;;;;5129016;28;20088;-47
2021/06/19 03:05:41;;;;;;;14.63;11.10;;;21.30;72.80;;;;;;5128156;28;20028;-45
2021/06/19 03:08:07;;;;;;;13.98;8.93;;;21.30;72.80;;;;;;5128554;28;20035;-47
2021/06/19 03:10:34;;;;;;;9.95;8.80;;;21.30;73.10;;;;;;5128390;28;20039;-46
2021/06/19 03:13:00;;;;;;;11.65;9.45;;;21.30;73.40;;;;;;5128256;28;20023;-47
2021/06/19 03:15:26;;;;;;;13.88;9.27;;;21.30;73.80;;;;;;5128519;28;20088;-47
2021/06/19 03:17:51;;;;;;;12.07;9.60;;;21.20;74.10;;;;;;5128724;28;20031;-46
2021/06/19 03:20:17;;;;;;;12.73;9.88;;;21.20;73.90;;;;;;5128442;28;20090;-46
2021/06/19 03:22:53;;;;;;;11.95;9.48;;;21.20;74.00;;;;;;5127803;28;20370;-48
2021/06/19 03:25:20;;;;;;;12.02;9.73;;;21.20;74.10;;;;;;5126715;28;20091;-46
2021/06/19 03:27:46;;;;;;;11.25;9.23;;;21.10;74.40;;;;;;5127762;28;20253;-48
2021/06/19 03:30:13;;;;;;;15.05;9.73;;;21.20;74.40;;;;;;5127106;28;20118;-48
2021/06/19 03:32:39;;;;;;;12.40;9.02;;;21.20;74.30;;;;;;5127733;27;20044;-46
2021/06/19 03:35:05;;;;;;;11.63;9.68;;;21.20;74.30;;;;;;5127651;28;20061;-47
2021/06/19 03:37:31;;;;;;;12.73;9.95;;;21.20;74.50;;;;;;5127606;28;20054;-47
2021/06/19 03:39:56;;;;;;;15.00;9.75;;;21.20;74.60;;;;;;5127555;28;20032;-46
2021/06/19 03:42:22;;;;;;;13.45;10.10;;;21.30;74.10;;;;;;5127377;27;20087;-47
2021/06/19 03:44:48;;;;;;;11.95;10.10;;;21.30;73.70;;;;;;5127086;28;20058;-46
2021/06/19 03:47:13;;;;;;;11.48;9.40;;;21.20;73.90;;;;;;5127881;28;20032;-46
2021/06/19 03:49:39;;;;;;;11.93;9.45;;;21.20;74.40;;;;;;5127624;28;20103;-46
2021/06/19 03:52:04;;;;;;;10.85;9.50;;;21.10;74.40;;;;;;5127441;28;20210;-47
2021/06/19 03:54:30;;;;;;;11.43;10.07;;;21.20;74.10;;;;;;5127609;28;20028;-46
2021/06/19 03:56:55;;;;;;;12.48;9.93;;;21.20;74.00;;;;;;5128284;28;20207;-47
2021/06/19 03:59:21;;;;;;;12.95;9.90;;;21.30;73.90;;;;;;5127632;28;20028;-46
2021/06/19 04:01:46;;;;;;;12.38;10.23;;;21.30;74.10;;;;;;5126643;28;20031;-46
2021/06/19 04:04:12;;;;;;;13.85;10.75;;;21.30;74.30;;;;;;5127081;28;20047;-46
2021/06/19 04:06:37;;;;;;;14.27;9.98;;;21.30;74.50;;;;;;5127322;28;20322;-46
2021/06/19 04:09:04;;;;;;;13.68;10.50;;;21.30;74.70;;;;;;5127468;28;20032;-48
2021/06/19 04:11:29;;;;;;;12.52;10.43;;;21.30;74.40;;;;;;5127413;28;20058;-48
2021/06/19 04:13:55;;;;;;;12.90;10.50;;;21.30;74.30;;;;;;5126860;28;20039;-53
2021/06/19 04:16:20;;;;;;;12.68;9.75;;;21.30;74.30;;;;;;5127039;28;20040;-54
2021/06/19 04:18:46;;;;;;;12.13;10.30;;;21.40;74.30;;;;;;5126797;28;20038;-52
2021/06/19 04:21:11;;;;;;;14.05;10.40;;;21.40;73.90;;;;;;5127508;28;20032;-50
2021/06/19 04:23:37;;;;;;;14.48;10.73;;;21.50;73.70;;;;;;5127186;28;20070;-53
2021/06/19 04:26:02;;;;;;;12.73;10.68;;;21.40;73.90;;;;;;5126676;28;20031;-45
2021/06/19 04:28:29;;;;;;;16.83;12.85;;;21.40;73.80;;;;;;5126700;28;20023;-44
2021/06/19 04:31:01;;;;;;;48.08;34.80;;;21.50;73.60;;;;;;5126603;28;20091;-44
2021/06/19 04:33:27;;;;;;;22.80;16.88;;;21.50;73.50;;;;;;5126356;28;20119;-46
2021/06/19 04:35:53;;;;;;;29.67;23.60;;;21.60;73.20;;;;;;5127565;28;20092;-46
2021/06/19 04:38:19;;;;;;;25.30;18.92;;;21.60;73.30;;;;;;5126886;28;20035;-48
2021/06/19 04:41:09;;;;;;;27.80;16.95;;;21.60;73.50;;;;;;5126481;28;20046;-46
2021/06/19 04:43:39;;;;;;;22.23;15.40;;;21.60;73.40;;;;;;5126416;28;20036;-46
2021/06/19 04:46:05;;;;;;;26.08;18.90;;;21.70;73.20;;;;;;5125895;28;20323;-56
2021/06/19 04:48:30;;;;;;;14.35;11.30;;;21.80;73.30;;;;;;5126148;28;20065;-56
2021/06/19 04:50:56;;;;;;;14.77;10.65;;;21.70;73.80;;;;;;5126978;28;20031;-57
2021/06/19 04:53:23;;;;;;;13.88;10.10;;;21.70;73.50;;;;;;5126620;28;20034;-55
2021/06/19 04:55:48;;;;;;;12.20;9.88;;;21.70;73.50;;;;;;5126432;28;20034;-55
2021/06/19 04:58:14;;;;;;;16.50;9.98;;;21.80;73.20;;;;;;5126269;28;20211;-55
2021/06/19 05:00:39;;;;;;;13.68;9.40;;;21.80;72.80;;;;;;5126616;28;20027;-54
2021/06/19 05:03:05;;;;;;;13.48;9.32;;;21.80;73.30;;;;;;5126756;28;20105;-54
2021/06/19 05:05:31;;;;;;;12.30;8.52;;;21.90;73.10;;;;;;5126425;28;20036;-56
2021/06/19 05:07:57;;;;;;;13.52;9.32;;;22.00;72.80;;;;;;5125080;28;20032;-56
2021/06/19 05:10:22;;;;;;;12.55;9.10;;;21.90;73.30;;;;;;5125873;28;20024;-56
2021/06/19 05:12:48;;;;;;;14.85;9.20;;;21.90;73.60;;;;;;5125012;28;20031;-56
2021/06/19 05:15:23;;;;;;;11.30;9.32;;;22.00;73.10;;;;;;5126428;28;20028;-56
2021/06/19 05:17:49;;;;;;;15.35;9.10;;;22.10;72.90;;;;;;5126394;28;20103;-56
2021/06/19 05:20:15;;;;;;;13.32;8.10;;;22.10;73.00;;;;;;5126025;28;20028;-54
2021/06/19 05:22:40;;;;;;;12.25;8.68;;;22.20;72.60;;;;;;5124525;28;20055;-57
2021/06/19 05:25:06;;;;;;;21.48;15.23;;;22.30;72.40;;;;;;5125828;28;20030;-57
2021/06/19 05:27:31;;;;;;;20.02;14.50;;;22.30;72.20;;;;;;5125947;28;20036;-55
2021/06/19 05:29:57;;;;;;;23.48;16.75;;;22.40;71.40;;;;;;5126232;28;20024;-50
2021/06/19 05:32:23;;;;;;;16.33;9.82;;;22.50;72.50;;;;;;5126173;28;20052;-47
2021/06/19 05:34:49;;;;;;;14.10;8.45;;;22.50;71.60;;;;;;5125692;28;20035;-47
2021/06/19 05:37:14;;;;;;;12.70;8.43;;;22.60;71.10;;;;;;5125096;28;20087;-49
2021/06/19 05:39:40;;;;;;;19.20;7.97;;;22.60;72.10;;;;;;5125216;28;20082;-50
2021/06/19 05:42:06;;;;;;;16.23;8.75;;;22.70;71.70;;;;;;5125757;28;20240;-47
2021/06/19 05:44:32;;;;;;;14.88;8.20;;;22.70;71.20;;;;;;5125732;28;20031;-48
2021/06/19 05:46:57;;;;;;;10.68;8.20;;;22.80;70.80;;;;;;5125354;28;20031;-47
2021/06/19 05:49:23;;;;;;;15.75;8.57;;;22.80;70.30;;;;;;5125264;28;20322;-47
2021/06/19 05:51:48;;;;;;;12.77;7.80;;;22.80;69.60;;;;;;5125274;28;20028;-47
2021/06/19 05:54:14;;;;;;;11.75;7.97;;;22.80;70.70;;;;;;5125635;28;20086;-48
2021/06/19 05:56:40;;;;;;;12.57;7.45;;;22.80;70.40;;;;;;5124820;28;20040;-49
2021/06/19 05:59:05;;;;;;;15.55;8.15;;;22.90;69.70;;;;;;5125216;28;20081;-47
2021/06/19 06:01:31;;;;;;;14.13;8.07;;;23.00;69.50;;;;;;5124403;28;20027;-51
2021/06/19 06:03:57;;;;;;;15.02;7.88;;;22.90;69.20;;;;;;5121561;28;20036;-47
2021/06/19 06:06:23;;;;;;;12.65;8.73;;;23.00;69.30;;;;;;5124958;28;20044;-47
2021/06/19 06:08:48;;;;;;;14.27;8.18;;;23.00;69.30;;;;;;5124981;28;20354;-49
2021/06/19 06:11:14;;;;;;;14.63;7.72;;;23.00;69.20;;;;;;5124682;28;20097;-47
2021/06/19 06:13:39;;;;;;;10.35;7.65;;;23.00;69.10;;;;;;5125123;28;20030;-48
2021/06/19 06:16:05;;;;;;;17.00;8.15;;;23.00;69.10;;;;;;5124447;28;20101;-47
2021/06/19 06:18:30;;;;;;;14.35;7.93;;;23.00;69.00;;;;;;5124474;28;20042;-48
2021/06/19 06:20:56;;;;;;;13.15;7.95;;;23.10;68.80;;;;;;5124770;28;20035;-54
2021/06/19 06:23:23;;;;;;;16.20;8.20;;;23.20;68.60;;;;;;5124511;28;20031;-52
2021/06/19 06:25:52;;;;;;;9.52;7.57;;;23.30;68.50;;;;;;5124338;28;20076;-53
2021/06/19 06:28:17;;;;;;;11.43;7.68;;;23.30;68.40;;;;;;5125344;28;20223;-54
2021/06/19 06:30:44;;;;;;;12.63;7.32;;;23.40;68.30;;;;;;5124666;28;20102;-55
2021/06/19 06:33:09;;;;;;;11.45;7.40;;;23.50;67.70;;;;;;5124153;28;20071;-53
2021/06/19 06:35:35;;;;;;;14.07;7.22;;;23.50;67.30;;;;;;5124179;28;20235;-54
2021/06/19 06:38:01;;;;;;;12.43;7.00;;;23.50;67.20;;;;;;5124160;28;20089;-54
2021/06/19 06:40:26;;;;;;;15.75;7.25;;;23.60;66.30;;;;;;5124554;28;20043;-55
2021/06/19 06:42:52;;;;;;;17.50;7.10;;;23.80;65.70;;;;;;5124593;28;20032;-56
2021/06/19 06:45:18;;;;;;;14.25;6.43;;;23.80;65.30;;;;;;5124435;28;20031;-53
2021/06/19 06:47:43;;;;;;;11.38;6.30;;;23.90;64.80;;;;;;5124373;28;20027;-55
2021/06/19 06:50:10;;;;;;;10.13;6.22;;;24.00;64.80;;;;;;5124289;28;20301;-54
2021/06/19 06:52:35;;;;;;;10.30;6.47;;;24.00;64.30;;;;;;5124594;28;20027;-55
2021/06/19 06:55:02;;;;;;;11.45;6.68;;;24.20;64.00;;;;;;5124645;28;20054;-55
2021/06/19 06:57:27;;;;;;;14.32;7.07;;;24.30;64.10;;;;;;5123727;28;20100;-55
2021/06/19 06:59:53;;;;;;;10.10;6.88;;;24.40;63.90;;;;;;5124062;28;20358;-55
2021/06/19 07:02:19;;;;;;;15.60;7.10;;;24.50;63.50;;;;;;5124154;28;20323;-54
2021/06/19 07:04:44;;;;;;;13.82;6.97;;;24.60;63.90;;;;;;5124387;28;20024;-55
2021/06/19 07:07:10;;;;;;;12.70;6.97;;;24.70;63.30;;;;;;5123425;28;20215;-53
2021/06/19 07:09:36;;;;;;;11.07;6.38;;;24.70;63.40;;;;;;5124386;28;20382;-55
2021/06/19 07:12:01;;;;;;;14.77;6.40;;;24.90;62.70;;;;;;5124249;28;20230;-55
2021/06/19 07:14:27;;;;;;;12.77;6.13;;;;;;;;;;5123928;28;20028;-54
2021/06/19 07:16:53;;;;;;;13.20;6.28;;;25.00;62.60;;;;;;5123670;28;20078;-55
2021/06/19 07:19:18;;;;;;;12.55;6.10;;;25.00;62.70;;;;;;5124551;28;20023;-55
2021/06/19 07:21:44;;;;;;;16.90;6.72;;;25.00;62.40;;;;;;5124265;28;20031;-54
2021/06/19 07:24:09;;;;;;;13.82;6.22;;;25.00;62.50;;;;;;5123987;28;20040;-52
2021/06/19 07:26:35;;;;;;;11.23;5.90;;;25.00;62.70;;;;;;5123226;28;20038;-55
2021/06/19 07:29:02;;;;;;;12.10;6.28;;;25.10;62.30;;;;;;5124179;28;20042;-53
2021/06/19 07:31:27;;;;;;;10.93;5.93;;;25.20;62.40;;;;;;5124722;28;20028;-54
2021/06/19 07:33:53;;;;;;;11.68;6.32;;;25.20;60.30;;;;;;5122835;28;20036;-53
2021/06/19 07:36:18;;;;;;;13.20;5.85;;;25.20;61.20;;;;;;5125568;28;20267;-55
2021/06/19 07:38:44;;;;;;;13.95;6.38;;;25.30;61.70;;;;;;5127459;28;20027;-55
2021/06/19 07:41:10;;;;;;;9.63;5.97;;;25.30;63.30;;;;;;5128197;28;20362;-54
2021/06/19 07:43:35;;;;;;;11.82;6.95;;;25.30;63.00;;;;;;5128477;28;20039;-55
2021/06/19 07:46:01;;;;;;;16.40;6.45;;;25.30;62.80;;;;;;5126783;28;20031;-53
2021/06/19 07:48:27;;;;;;;18.98;7.13;;;25.40;62.60;;;;;;5128028;28;20034;-59
2021/06/19 07:50:53;;;;;;;13.07;6.63;;;25.30;62.80;;;;;;5127443;28;20031;-51
2021/06/19 07:53:19;;;;;;;13.40;6.38;;;25.30;62.10;;;;;;5126309;28;20087;-49
2021/06/19 07:55:44;;;;;;;14.10;6.40;;;25.30;62.30;;;;;;5127477;27;20223;-52
2021/06/19 07:58:10;;;;;;;12.65;6.47;;;25.30;62.40;;;;;;5127514;28;20074;-55
2021/06/19 08:00:35;;;;;;;17.83;6.85;;;25.30;62.40;;;;;;5126877;28;20051;-51
2021/06/19 08:03:01;;;;;;;12.40;6.53;;;25.40;62.90;;;;;;5127327;28;20035;-57
2021/06/19 08:05:26;;;;;;;16.95;6.90;;;25.30;62.50;;;;;;5125762;28;20020;-59
2021/06/19 08:07:55;;;;;;;13.15;6.40;;;25.40;62.80;;;;;;5115976;28;20039;-61
2021/06/19 08:10:25;;;;;;;13.65;6.93;;;25.50;63.50;;;;;;5126064;28;20024;-55
2021/06/19 08:12:50;;;;;;;9.27;6.68;;;25.50;63.10;;;;;;5127322;27;20035;-58
2021/06/19 08:15:16;;;;;;;12.18;6.78;;;25.50;62.80;;;;;;5127122;28;20057;-50
2021/06/19 08:17:42;;;;;;;14.10;6.85;;;25.50;63.10;;;;;;5126761;27;20098;-54
2021/06/19 08:20:08;;;;;;;16.83;6.72;;;25.50;63.70;;;;;;5127008;28;20032;-53
2021/06/19 08:22:33;;;;;;;13.93;7.07;;;25.60;63.40;;;;;;5127232;28;20074;-47
2021/06/19 08:24:59;;;;;;;11.52;6.50;;;25.60;63.40;;;;;;5127222;28;20031;-49
2021/06/19 08:27:25;;;;;;;11.35;6.40;;;25.70;63.20;;;;;;5126990;28;20028;-49
2021/06/19 08:29:54;;;;;;;17.88;7.63;;;25.70;63.00;;;;;;5127139;28;20256;-52
2021/06/19 08:32:20;;;;;;;14.90;7.45;;;25.80;62.60;;;;;;5125436;28;20036;-56
2021/06/19 08:34:45;;;;;;;192.52;25.85;;;25.80;64.00;;;;;;5126677;28;20327;-48
2021/06/19 08:37:11;;;;;;;14.32;7.47;;;25.80;65.20;;;;;;5127601;28;20062;-47
2021/06/19 08:39:37;;;;;;;12.30;7.43;;;26.00;62.60;;;;;;5126885;28;20046;-46
2021/06/19 08:42:02;;;;;;;15.02;6.57;;;26.20;66.30;;;;;;5126374;28;20042;-48
2021/06/19 08:44:28;;;;;;;13.07;7.20;;;26.30;62.20;;;;;;5126631;28;20027;-47
2021/06/19 08:46:54;;;;;;;13.93;6.75;;;26.50;61.40;;;;;;5126011;28;20028;-47
2021/06/19 08:49:21;;;;;;;12.20;6.18;;;26.60;61.30;;;;;;5127040;28;20024;-47
2021/06/19 08:51:47;;;;;;;14.70;7.07;;;26.70;59.60;;;;;;5125300;28;20091;-47
2021/06/19 08:54:13;;;;;;;14.70;6.47;;;26.80;63.20;;;;;;5126453;27;20054;-47
2021/06/19 08:56:42;;;;;;;14.93;7.22;;;27.10;59.70;;;;;;5126046;28;20031;-46
2021/06/19 08:59:08;;;;;;;16.00;6.93;;;27.10;58.90;;;;;;5126239;27;21027;-47
2021/06/19 09:01:34;;;;;;;14.43;7.03;;;27.20;60.00;;;;;;5126665;28;20019;-48
2021/06/19 09:04:03;;;;;;;13.20;6.75;;;27.50;59.20;;;;;;5125064;28;20040;-48
2021/06/19 09:06:29;;;;;;;24.75;8.43;;;27.50;58.30;;;;;;5126290;28;20043;-50
2021/06/19 09:09:01;;;;;;;17.42;7.90;;;;;;;;;;5125984;28;20035;-56
2021/06/19 09:11:31;;;;;;;18.35;7.72;;;27.80;56.40;;;;;;5125712;28;20372;-49
2021/06/19 09:13:59;;;;;;;10.45;6.22;;;27.90;58.30;;;;;;5107645;28;20028;-46
2021/06/19 09:16:24;;;;;;;17.13;7.47;;;28.00;57.10;;;;;;5126704;28;20039;-47
2021/06/19 09:18:50;;;;;;;13.38;6.80;;;28.00;58.10;;;;;;5125961;28;20036;-47
2021/06/19 09:21:15;;;;;;;14.70;7.30;;;28.10;57.90;;;;;;5125694;28;20041;-49
2021/06/19 09:23:43;;;;;;;14.48;7.03;;;28.20;55.90;;;;;;5124371;28;20047;-46
2021/06/19 09:26:22;;;;;;;11.70;6.45;;;28.20;54.50;;;;;;5125653;27;20087;-48
2021/06/19 09:29:04;;;;;;;11.60;6.80;;;28.40;56.30;;;;;;5125362;28;20035;-46
2021/06/19 09:31:31;;;;;;;11.80;6.47;;;28.50;53.40;;;;;;5125968;28;20027;-47
2021/06/19 09:34:23;;;;;;;12.13;6.40;;;28.60;54.40;;;;;;5125575;28;20096;-47
2021/06/19 09:36:57;;;;;;;17.27;6.82;;;28.60;52.90;;;;;;5124620;27;20095;-48
2021/06/19 09:39:28;;;;;;;14.05;6.80;;;28.80;53.30;;;;;;5125552;28;20055;-46
2021/06/19 09:41:54;;;;;;;;;;;28.80;52.40;;;;;;5125723;27;20115;-46
2021/06/19 09:44:42;;;;;;;11.25;6.18;;;28.80;52.30;;;;;;5124893;28;19912;-47
2021/06/19 09:47:08;;;;;;;14.68;6.38;;;28.80;51.60;;;;;;5124963;28;20035;-56
2021/06/19 09:49:40;;;;;;;14.23;7.07;;;28.90;52.00;;;;;;5125665;28;20258;-46
2021/06/19 09:52:06;;;;;;;11.00;6.68;;;29.00;50.70;;;;;;5125342;28;20051;-46
2021/06/19 09:54:40;;;;;;;14.35;7.20;;;29.00;52.30;;;;;;5124180;28;20193;-50
2021/06/19 09:57:07;;;;;;;15.05;6.85;;;29.00;51.10;;;;;;5124267;28;20201;-46
2021/06/19 09:59:35;;;;;;;12.75;8.07;;;29.10;54.40;;;;;;5124972;28;20040;-47
2021/06/19 10:02:03;;;;;;;19.52;10.25;;;29.30;53.30;;;;;;5124669;28;20031;-54
2021/06/19 10:04:31;;;;;;;254.95;232.27;;;29.40;52.20;;;;;;5125228;28;20027;-46
2021/06/19 10:06:58;;;;;;;94.82;84.53;;;29.50;50.20;;;;;;5124979;28;20032;-46
2021/06/19 10:09:23;;;;;;;357.77;214.23;;;29.70;51.50;;;;;;5124465;28;20239;-44
2021/06/19 10:11:51;;;;;;;73.70;41.50;;;29.80;51.80;;;;;;5123572;28;20087;-47
2021/06/19 10:14:18;;;;;;;95.68;68.43;;;30.00;49.90;;;;;;5124693;28;20028;-44
2021/06/19 10:16:45;;;;;;;211.48;136.80;;;29.90;48.10;;;;;;5124662;28;20072;-45
2021/06/19 10:19:11;;;;;;;49.03;30.02;;;29.90;47.40;;;;;;5124707;28;20039;-43
2021/06/19 10:21:36;;;;;;;11.55;7.25;;;30.00;48.70;;;;;;5124637;28;20023;-43
2021/06/19 10:24:03;;;;;;;56.60;50.65;;;30.00;49.40;;;;;;5125784;28;20039;-43
2021/06/19 10:26:29;;;;;;;27.33;17.67;;;30.00;47.10;;;;;;5122960;28;20036;-46
2021/06/19 10:28:57;;;;;;;12.63;6.25;;;30.20;50.60;;;;;;5124287;28;20027;-44
2021/06/19 10:31:23;;;;;;;10.75;6.60;;;30.10;48.50;;;;;;5124851;28;20379;-43
2021/06/19 10:33:49;;;;;;;11.55;6.13;;;30.10;48.70;;;;;;5123533;28;20035;-41
2021/06/19 10:36:15;;;;;;;13.10;6.18;;;30.20;49.10;;;;;;5124241;28;20099;-41
2021/06/19 10:38:59;;;;;;;19.60;12.80;;;30.20;49.10;;;;;;5124441;28;20388;-43
2021/06/19 10:41:50;;;;;;;16.08;7.32;;;30.40;48.90;;;;;;5124424;28;20024;-42
2021/06/19 10:44:50;;;;;;;14.50;6.22;;;30.50;48.70;;;;;;5124183;28;20040;-43
2021/06/19 10:47:20;;;;;;;11.40;6.18;;;30.60;50.40;;;;;;5124535;28;20032;-41
2021/06/19 10:49:46;;;;;;;8.82;5.78;;;30.60;45.70;;;;;;5124426;28;20240;-41
2021/06/19 10:52:35;;;;;;;11.60;5.95;;;30.60;43.60;;;;;;5125074;28;20032;-42
2021/06/19 10:55:14;;;;;;;13.60;5.85;;;30.60;47.00;;;;;;5121653;28;20028;-42
2021/06/19 10:57:50;;;;;;;10.77;5.82;;;30.70;46.50;;;;;;5124469;28;20036;-44
2021/06/19 11:00:51;;;;;;;10.32;5.55;;;30.70;44.50;;;;;;5124081;28;20043;-41
2021/06/19 11:03:18;;;;;;;11.35;5.57;;;31.00;44.20;;;;;;5124821;28;20039;-41
2021/06/19 11:05:53;;;;;;;17.27;6.53;;;30.90;43.70;;;;;;5123372;28;20128;-43
2021/06/19 11:08:19;;;;;;;11.88;5.70;;;31.00;47.70;;;;;;5124694;28;20038;-42
2021/06/19 11:10:48;;;;;;;11.85;5.78;;;30.90;44.00;;;;;;5126727;27;20055;-42
2021/06/19 11:13:39;;;;;;;21.05;6.05;;;30.80;45.70;;;;;;5129480;28;20028;-42
2021/06/19 11:16:05;;;;;;;11.73;5.90;;;30.90;47.30;;;;;;5128686;28;20039;-39
2021/06/19 11:18:50;;;;;;;11.80;5.32;;;30.90;45.80;;;;;;5128228;28;20036;-44
2021/06/19 11:21:16;;;;;;;12.65;5.85;;;30.80;43.50;;;;;;5128138;28;20103;-43
2021/06/19 11:24:00;;;;;;;11.82;5.63;;;31.00;44.60;;;;;;5128231;28;20039;-49
2021/06/19 11:26:44;;;;;;;17.35;5.85;;;31.00;45.80;;;;;;5128195;28;20027;-44
2021/06/19 11:29:34;;;;;;;12.68;7.88;;;31.10;46.30;;;;;;5127904;28;20334;-46
2021/06/19 11:32:19;;;;;;;;;;;31.20;47.10;;;;;;5128045;28;20281;-43
2021/06/19 11:34:44;;;;;;;10.13;5.97;;;31.20;47.40;;;;;;5127928;27;19900;-46
2021/06/19 11:37:10;;;;;;;12.10;5.95;;;31.10;45.70;;;;;;5127579;28;20068;-47
2021/06/19 11:39:35;;;;;;;13.20;5.63;;;31.00;44.00;;;;;;5128001;28;20331;-44
2021/06/19 11:42:01;;;;;;;9.60;5.40;;;31.10;43.30;;;;;;5127531;28;20098;-42
2021/06/19 11:44:33;;;;;;;20.98;10.85;;;31.00;44.30;;;;;;5127441;28;20085;-43
2021/06/19 11:47:01;;;;;;;13.98;5.85;;;31.20;47.40;;;;;;5127609;28;20053;-49
2021/06/19 11:49:28;;;;;;;11.18;5.85;;;31.20;44.30;;;;;;5126800;28;20028;-44
2021/06/19 11:51:54;;;;;;;13.57;6.07;;;31.30;45.90;;;;;;5128443;28;20212;-41
2021/06/19 11:54:20;;;;;;;20.63;5.93;;;31.40;44.20;;;;;;5127707;28;20058;-41
2021/06/19 11:56:45;;;;;;;14.38;6.72;;;31.60;47.80;;;;;;5127861;28;20032;-49
2021/06/19 11:59:12;;;;;;;17.25;6.85;;;31.70;48.10;;;;;;5127934;28;20028;-45
2021/06/19 12:01:49;;;;;;;30.30;10.32;;;31.70;47.50;;;;;;5128341;28;20036;-49
2021/06/19 12:04:19;;;;;;;14.20;6.40;;;31.70;51.70;;;;;;5127992;28;20032;-46
2021/06/19 12:06:56;;;;;;;12.18;5.88;;;31.70;44.80;;;;;;5128286;27;20051;-46
2021/06/19 12:09:30;;;;;;;9.82;6.15;;;31.80;42.80;;;;;;5126688;28;20035;-44
2021/06/19 12:11:57;;;;;;;14.00;6.47;;;31.90;44.90;;;;;;5127772;28;20032;-46
2021/06/19 12:14:36;;;;;;;15.55;6.13;;;32.10;43.50;;;;;;5121945;27;20027;-45
2021/06/19 12:17:06;;;;;;;8.70;5.95;;;32.10;43.30;;;;;;5127772;28;20339;-47
2021/06/19 12:19:33;;;;;;;13.35;6.32;;;32.20;41.70;;;;;;5127362;28;20031;-48
2021/06/19 12:22:00;;;;;;;15.18;6.63;;;32.30;42.00;;;;;;5126390;28;20069;-47
2021/06/19 12:24:31;;;;;;;12.90;5.90;;;32.20;42.90;;;;;;5127023;28;20196;-48
2021/06/19 12:27:04;;;;;;;;;;;32.20;43.20;;;;;;5127231;28;20399;-47
2021/06/19 12:29:53;;;;;;;20.00;6.60;;;32.10;44.10;;;;;;5125757;28;19907;-48
2021/06/19 12:32:35;;;;;;;12.98;6.70;;;31.90;44.20;;;;;;5126137;28;20115;-47
2021/06/19 12:35:06;;;;;;;12.57;5.90;;;31.80;45.30;;;;;;5127307;28;20080;-49
2021/06/19 12:37:37;;;;;;;14.77;6.85;;;31.50;46.80;;;;;;5127228;28;20047;-46